sensor_id;sensor_type;location;lat;lon;timestamp;P1;durP1;ratioP1;P2;durP2;ratioP2
31128;SDS011;17777;48.770;8.944;2023-04-19T00:00:39;5.75;;;5.03;;
31128;SDS011;17777;48.770;8.944;2023-04-19T00:03:06;5.40;;;4.60;;
31128;SDS011;17777;48.770;8.944;2023-04-19T00:05:32;6.22;;;5.15;;
31128;SDS011;17777;48.770;8.944;2023-04-19T00:07:59;8.18;;;5.10;;
31128;SDS011;17777;48.770;8.944;2023-04-19T00:10:25;6.13;;;5.00;;
31128;SDS011;17777;48.770;8.944;2023-04-19T00:12:51;6.80;;;5.57;;
31128;SDS011;17777;48.770;8.944;2023-04-19T00:15:17;5.82;;;4.88;;
31128;SDS011;17777;48.770;8.944;2023-04-19T00:17:43;6.28;;;5.35;;
31128;SDS011;17777;48.770;8.944;2023-04-19T00:20:09;7.38;;;5.72;;
31128;SDS011;17777;48.770;8.944;2023-04-19T00:22:37;8.25;;;5.78;;
31128;SDS011;17777;48.770;8.944;2023-04-19T00:25:03;6.72;;;5.57;;
31128;SDS011;17777;48.770;8.944;2023-04-19T00:27:30;6.88;;;5.28;;
31128;SDS011;17777;48.770;8.944;2023-04-19T00:29:57;5.97;;;5.35;;
31128;SDS011;17777;48.770;8.944;2023-04-19T00:32:23;7.32;;;6.05;;
31128;SDS011;17777;48.770;8.944;2023-04-19T00:34:50;6.70;;;5.63;;
31128;SDS011;17777;48.770;8.944;2023-04-19T00:37:15;5.85;;;5.13;;
31128;SDS011;17777;48.770;8.944;2023-04-19T00:39:41;7.63;;;5.70;;
31128;SDS011;17777;48.770;8.944;2023-04-19T00:42:07;6.15;;;5.50;;
31128;SDS011;17777;48.770;8.944;2023-04-19T00:44:33;7.53;;;5.60;;
31128;SDS011;17777;48.770;8.944;2023-04-19T00:46:59;7.32;;;6.10;;
31128;SDS011;17777;48.770;8.944;2023-04-19T00:49:25;8.10;;;6.28;;
31128;SDS011;17777;48.770;8.944;2023-04-19T00:51:51;8.60;;;6.00;;
31128;SDS011;17777;48.770;8.944;2023-04-19T00:54:18;8.75;;;6.28;;
31128;SDS011;17777;48.770;8.944;2023-04-19T00:56:47;8.15;;;6.00;;
31128;SDS011;17777;48.770;8.944;2023-04-19T00:59:15;7.95;;;6.30;;
31128;SDS011;17777;48.770;8.944;2023-04-19T01:01:41;8.82;;;6.13;;
31128;SDS011;17777;48.770;8.944;2023-04-19T01:04:07;8.35;;;6.18;;
31128;SDS011;17777;48.770;8.944;2023-04-19T01:06:33;9.60;;;6.82;;
31128;SDS011;17777;48.770;8.944;2023-04-19T01:09:01;8.52;;;6.72;;
31128;SDS011;17777;48.770;8.944;2023-04-19T01:11:27;8.38;;;6.30;;
31128;SDS011;17777;48.770;8.944;2023-04-19T01:13:56;8.60;;;6.43;;
31128;SDS011;17777;48.770;8.944;2023-04-19T01:16:25;8.77;;;6.22;;
31128;SDS011;17777;48.770;8.944;2023-04-19T01:18:52;9.57;;;6.57;;
31128;SDS011;17777;48.770;8.944;2023-04-19T01:21:18;9.02;;;6.38;;
31128;SDS011;17777;48.770;8.944;2023-04-19T01:23:46;8.07;;;6.03;;
31128;SDS011;17777;48.770;8.944;2023-04-19T01:26:12;9.55;;;7.20;;
31128;SDS011;17777;48.770;8.944;2023-04-19T01:28:37;9.68;;;6.68;;
31128;SDS011;17777;48.770;8.944;2023-04-19T01:31:03;8.88;;;6.60;;
31128;SDS011;17777;48.770;8.944;2023-04-19T01:33:29;9.10;;;7.15;;
31128;SDS011;17777;48.770;8.944;2023-04-19T01:35:55;9.60;;;7.00;;
31128;SDS011;17777;48.770;8.944;2023-04-19T01:38:21;8.80;;;6.72;;
31128;SDS011;17777;48.770;8.944;2023-04-19T01:40:47;8.70;;;6.55;;
31128;SDS011;17777;48.770;8.944;2023-04-19T01:43:13;8.63;;;6.40;;
31128;SDS011;17777;48.770;8.944;2023-04-19T01:45:42;8.52;;;6.13;;
31128;SDS011;17777;48.770;8.944;2023-04-19T01:48:08;8.90;;;6.55;;
31128;SDS011;17777;48.770;8.944;2023-04-19T01:50:34;7.93;;;6.53;;
31128;SDS011;17777;48.770;8.944;2023-04-19T01:52:59;9.02;;;6.70;;
31128;SDS011;17777;48.770;8.944;2023-04-19T01:55:25;10.52;;;7.13;;
31128;SDS011;17777;48.770;8.944;2023-04-19T01:57:51;7.85;;;6.43;;
31128;SDS011;17777;48.770;8.944;2023-04-19T02:00:19;9.48;;;7.25;;
31128;SDS011;17777;48.770;8.944;2023-04-19T02:02:45;8.93;;;6.85;;
31128;SDS011;17777;48.770;8.944;2023-04-19T02:05:13;9.77;;;6.68;;
31128;SDS011;17777;48.770;8.944;2023-04-19T02:07:39;9.25;;;6.47;;
31128;SDS011;17777;48.770;8.944;2023-04-19T02:10:08;8.02;;;6.38;;
31128;SDS011;17777;48.770;8.944;2023-04-19T02:12:40;9.75;;;6.95;;
31128;SDS011;17777;48.770;8.944;2023-04-19T02:15:07;8.52;;;6.50;;
31128;SDS011;17777;48.770;8.944;2023-04-19T02:17:33;7.68;;;6.25;;
31128;SDS011;17777;48.770;8.944;2023-04-19T02:20:00;9.25;;;6.90;;
31128;SDS011;17777;48.770;8.944;2023-04-19T02:22:25;8.15;;;6.63;;
31128;SDS011;17777;48.770;8.944;2023-04-19T02:24:51;9.88;;;7.25;;
31128;SDS011;17777;48.770;8.944;2023-04-19T02:27:17;11.43;;;7.97;;
31128;SDS011;17777;48.770;8.944;2023-04-19T02:29:43;8.60;;;7.07;;
31128;SDS011;17777;48.770;8.944;2023-04-19T02:32:11;8.23;;;6.68;;
31128;SDS011;17777;48.770;8.944;2023-04-19T02:34:37;8.98;;;6.47;;
31128;SDS011;17777;48.770;8.944;2023-04-19T02:37:03;9.23;;;7.18;;
31128;SDS011;17777;48.770;8.944;2023-04-19T02:39:29;9.02;;;6.72;;
31128;SDS011;17777;48.770;8.944;2023-04-19T02:41:55;9.13;;;6.78;;
31128;SDS011;17777;48.770;8.944;2023-04-19T02:44:21;9.65;;;6.70;;
31128;SDS011;17777;48.770;8.944;2023-04-19T02:46:50;8.98;;;6.40;;
31128;SDS011;17777;48.770;8.944;2023-04-19T02:49:17;8.90;;;6.32;;
31128;SDS011;17777;48.770;8.944;2023-04-19T02:51:43;11.35;;;7.43;;
31128;SDS011;17777;48.770;8.944;2023-04-19T02:54:11;9.98;;;7.32;;
31128;SDS011;17777;48.770;8.944;2023-04-19T02:56:38;9.00;;;6.93;;
31128;SDS011;17777;48.770;8.944;2023-04-19T02:59:04;8.63;;;6.60;;
31128;SDS011;17777;48.770;8.944;2023-04-19T03:01:31;9.55;;;6.40;;
31128;SDS011;17777;48.770;8.944;2023-04-19T03:04:00;9.70;;;6.82;;
31128;SDS011;17777;48.770;8.944;2023-04-19T03:06:26;10.68;;;7.20;;
31128;SDS011;17777;48.770;8.944;2023-04-19T03:08:52;8.55;;;6.88;;
31128;SDS011;17777;48.770;8.944;2023-04-19T03:11:18;9.07;;;6.93;;
31128;SDS011;17777;48.770;8.944;2023-04-19T03:13:45;8.93;;;6.90;;
31128;SDS011;17777;48.770;8.944;2023-04-19T03:16:12;8.90;;;6.78;;
31128;SDS011;17777;48.770;8.944;2023-04-19T03:18:38;8.55;;;6.45;;
31128;SDS011;17777;48.770;8.944;2023-04-19T03:21:04;8.75;;;6.95;;
31128;SDS011;17777;48.770;8.944;2023-04-19T03:23:43;8.55;;;6.65;;
31128;SDS011;17777;48.770;8.944;2023-04-19T03:26:09;8.65;;;6.65;;
31128;SDS011;17777;48.770;8.944;2023-04-19T03:28:43;11.40;;;7.28;;
31128;SDS011;17777;48.770;8.944;2023-04-19T03:31:29;8.75;;;6.53;;
31128;SDS011;17777;48.770;8.944;2023-04-19T03:33:56;9.70;;;7.28;;
31128;SDS011;17777;48.770;8.944;2023-04-19T03:36:27;9.73;;;6.95;;
31128;SDS011;17777;48.770;8.944;2023-04-19T03:38:53;9.27;;;7.32;;
31128;SDS011;17777;48.770;8.944;2023-04-19T03:41:24;9.68;;;7.15;;
31128;SDS011;17777;48.770;8.944;2023-04-19T03:44:15;8.43;;;6.88;;
31128;SDS011;17777;48.770;8.944;2023-04-19T03:46:42;9.98;;;6.53;;
31128;SDS011;17777;48.770;8.944;2023-04-19T03:49:11;10.82;;;7.05;;
31128;SDS011;17777;48.770;8.944;2023-04-19T03:51:39;8.35;;;6.65;;
31128;SDS011;17777;48.770;8.944;2023-04-19T03:54:05;9.93;;;7.07;;
31128;SDS011;17777;48.770;8.944;2023-04-19T03:56:31;9.40;;;6.60;;
31128;SDS011;17777;48.770;8.944;2023-04-19T03:58:57;10.02;;;7.18;;
31128;SDS011;17777;48.770;8.944;2023-04-19T04:01:23;7.97;;;6.78;;
31128;SDS011;17777;48.770;8.944;2023-04-19T04:03:52;9.23;;;7.38;;
31128;SDS011;17777;48.770;8.944;2023-04-19T04:06:18;8.00;;;6.30;;
31128;SDS011;17777;48.770;8.944;2023-04-19T04:08:45;10.30;;;7.38;;
31128;SDS011;17777;48.770;8.944;2023-04-19T04:11:11;8.85;;;7.25;;
31128;SDS011;17777;48.770;8.944;2023-04-19T04:13:36;8.80;;;6.80;;
31128;SDS011;17777;48.770;8.944;2023-04-19T04:16:09;10.38;;;7.68;;
31128;SDS011;17777;48.770;8.944;2023-04-19T04:18:35;10.65;;;7.40;;
31128;SDS011;17777;48.770;8.944;2023-04-19T04:21:04;9.05;;;7.13;;
31128;SDS011;17777;48.770;8.944;2023-04-19T04:23:32;9.40;;;7.45;;
31128;SDS011;17777;48.770;8.944;2023-04-19T04:25:58;9.60;;;7.43;;
31128;SDS011;17777;48.770;8.944;2023-04-19T04:30:58;8.55;;;6.20;;
31128;SDS011;17777;48.770;8.944;2023-04-19T04:33:27;9.50;;;6.90;;
31128;SDS011;17777;48.770;8.944;2023-04-19T04:35:53;11.02;;;7.53;;
31128;SDS011;17777;48.770;8.944;2023-04-19T04:38:24;8.68;;;7.07;;
31128;SDS011;17777;48.770;8.944;2023-04-19T04:40:50;9.73;;;6.97;;
31128;SDS011;17777;48.770;8.944;2023-04-19T04:43:23;10.93;;;7.65;;
31128;SDS011;17777;48.770;8.944;2023-04-19T04:45:53;10.95;;;7.88;;
31128;SDS011;17777;48.770;8.944;2023-04-19T04:48:20;8.45;;;6.82;;
31128;SDS011;17777;48.770;8.944;2023-04-19T04:50:45;9.07;;;7.82;;
31128;SDS011;17777;48.770;8.944;2023-04-19T04:53:11;8.77;;;7.38;;
31128;SDS011;17777;48.770;8.944;2023-04-19T04:55:39;11.63;;;7.60;;
31128;SDS011;17777;48.770;8.944;2023-04-19T04:58:05;8.65;;;7.30;;
31128;SDS011;17777;48.770;8.944;2023-04-19T05:00:47;10.00;;;7.38;;
31128;SDS011;17777;48.770;8.944;2023-04-19T05:03:14;12.07;;;7.53;;
31128;SDS011;17777;48.770;8.944;2023-04-19T05:05:46;8.85;;;6.97;;
31128;SDS011;17777;48.770;8.944;2023-04-19T05:08:11;10.80;;;7.72;;
31128;SDS011;17777;48.770;8.944;2023-04-19T05:10:37;10.45;;;7.85;;
31128;SDS011;17777;48.770;8.944;2023-04-19T05:13:03;10.23;;;8.05;;
31128;SDS011;17777;48.770;8.944;2023-04-19T05:15:30;12.00;;;7.85;;
31128;SDS011;17777;48.770;8.944;2023-04-19T05:17:56;9.00;;;6.75;;
31128;SDS011;17777;48.770;8.944;2023-04-19T05:20:23;9.30;;;7.20;;
31128;SDS011;17777;48.770;8.944;2023-04-19T05:22:57;9.32;;;6.72;;
31128;SDS011;17777;48.770;8.944;2023-04-19T05:25:25;9.70;;;7.28;;
31128;SDS011;17777;48.770;8.944;2023-04-19T05:27:54;11.13;;;7.63;;
31128;SDS011;17777;48.770;8.944;2023-04-19T05:30:20;9.57;;;7.43;;
31128;SDS011;17777;48.770;8.944;2023-04-19T05:32:46;9.07;;;7.28;;
31128;SDS011;17777;48.770;8.944;2023-04-19T05:35:13;9.45;;;6.75;;
31128;SDS011;17777;48.770;8.944;2023-04-19T05:37:39;10.60;;;6.95;;
31128;SDS011;17777;48.770;8.944;2023-04-19T05:40:05;10.90;;;7.20;;
31128;SDS011;17777;48.770;8.944;2023-04-19T05:42:34;10.45;;;7.40;;
31128;SDS011;17777;48.770;8.944;2023-04-19T05:45:00;8.98;;;7.10;;
31128;SDS011;17777;48.770;8.944;2023-04-19T05:47:26;8.85;;;6.97;;
31128;SDS011;17777;48.770;8.944;2023-04-19T05:50:15;10.05;;;6.78;;
31128;SDS011;17777;48.770;8.944;2023-04-19T05:52:51;8.52;;;7.10;;
31128;SDS011;17777;48.770;8.944;2023-04-19T05:55:18;9.75;;;6.90;;
31128;SDS011;17777;48.770;8.944;2023-04-19T05:57:44;8.18;;;6.65;;
31128;SDS011;17777;48.770;8.944;2023-04-19T06:00:10;8.85;;;7.38;;
31128;SDS011;17777;48.770;8.944;2023-04-19T06:02:46;9.15;;;6.80;;
31128;SDS011;17777;48.770;8.944;2023-04-19T06:05:12;7.97;;;6.43;;
31128;SDS011;17777;48.770;8.944;2023-04-19T06:07:38;9.02;;;6.88;;
31128;SDS011;17777;48.770;8.944;2023-04-19T06:10:04;9.45;;;6.97;;
31128;SDS011;17777;48.770;8.944;2023-04-19T06:12:32;8.15;;;7.10;;
31128;SDS011;17777;48.770;8.944;2023-04-19T06:14:57;9.35;;;7.53;;
31128;SDS011;17777;48.770;8.944;2023-04-19T06:17:24;10.63;;;7.88;;
31128;SDS011;17777;48.770;8.944;2023-04-19T06:19:50;10.30;;;7.43;;
31128;SDS011;17777;48.770;8.944;2023-04-19T06:22:16;9.52;;;7.00;;
31128;SDS011;17777;48.770;8.944;2023-04-19T06:24:46;11.32;;;6.90;;
31128;SDS011;17777;48.770;8.944;2023-04-19T06:27:12;9.02;;;7.07;;
31128;SDS011;17777;48.770;8.944;2023-04-19T06:29:40;8.73;;;6.88;;
31128;SDS011;17777;48.770;8.944;2023-04-19T06:32:05;9.27;;;7.30;;
31128;SDS011;17777;48.770;8.944;2023-04-19T06:34:31;10.52;;;6.78;;
31128;SDS011;17777;48.770;8.944;2023-04-19T06:36:57;8.48;;;6.80;;
31128;SDS011;17777;48.770;8.944;2023-04-19T06:39:23;10.18;;;7.68;;
31128;SDS011;17777;48.770;8.944;2023-04-19T06:41:48;8.73;;;6.82;;
31128;SDS011;17777;48.770;8.944;2023-04-19T06:44:15;9.27;;;7.25;;
31128;SDS011;17777;48.770;8.944;2023-04-19T06:46:41;8.73;;;6.63;;
31128;SDS011;17777;48.770;8.944;2023-04-19T06:49:07;8.80;;;7.00;;
31128;SDS011;17777;48.770;8.944;2023-04-19T06:51:32;8.30;;;6.53;;
31128;SDS011;17777;48.770;8.944;2023-04-19T06:53:58;9.13;;;7.30;;
31128;SDS011;17777;48.770;8.944;2023-04-19T06:59:11;7.85;;;6.30;;
31128;SDS011;17777;48.770;8.944;2023-04-19T07:01:45;9.65;;;6.65;;
31128;SDS011;17777;48.770;8.944;2023-04-19T07:04:11;8.50;;;6.80;;
31128;SDS011;17777;48.770;8.944;2023-04-19T07:06:38;8.18;;;6.50;;
31128;SDS011;17777;48.770;8.944;2023-04-19T07:09:05;6.93;;;6.13;;
31128;SDS011;17777;48.770;8.944;2023-04-19T07:11:32;7.07;;;6.25;;
31128;SDS011;17777;48.770;8.944;2023-04-19T07:13:58;10.18;;;7.50;;
31128;SDS011;17777;48.770;8.944;2023-04-19T07:16:27;8.77;;;6.97;;
31128;SDS011;17777;48.770;8.944;2023-04-19T07:18:53;8.40;;;6.43;;
31128;SDS011;17777;48.770;8.944;2023-04-19T07:21:18;8.85;;;6.72;;
31128;SDS011;17777;48.770;8.944;2023-04-19T07:23:44;7.88;;;6.32;;
31128;SDS011;17777;48.770;8.944;2023-04-19T07:26:10;9.57;;;7.07;;
31128;SDS011;17777;48.770;8.944;2023-04-19T07:28:37;8.70;;;7.20;;
31128;SDS011;17777;48.770;8.944;2023-04-19T07:31:04;8.02;;;6.82;;
31128;SDS011;17777;48.770;8.944;2023-04-19T07:33:30;9.13;;;6.95;;
31128;SDS011;17777;48.770;8.944;2023-04-19T07:35:56;8.05;;;6.57;;
31128;SDS011;17777;48.770;8.944;2023-04-19T07:38:22;9.07;;;6.30;;
31128;SDS011;17777;48.770;8.944;2023-04-19T07:40:48;9.60;;;7.00;;
31128;SDS011;17777;48.770;8.944;2023-04-19T07:43:15;9.05;;;7.47;;
31128;SDS011;17777;48.770;8.944;2023-04-19T07:45:40;8.88;;;7.55;;
31128;SDS011;17777;48.770;8.944;2023-04-19T07:48:06;8.88;;;6.78;;
31128;SDS011;17777;48.770;8.944;2023-04-19T07:50:32;8.90;;;6.97;;
31128;SDS011;17777;48.770;8.944;2023-04-19T07:52:58;10.00;;;7.18;;
31128;SDS011;17777;48.770;8.944;2023-04-19T07:55:24;11.38;;;7.47;;
31128;SDS011;17777;48.770;8.944;2023-04-19T07:57:50;9.60;;;7.75;;
31128;SDS011;17777;48.770;8.944;2023-04-19T08:00:16;12.05;;;7.90;;
31128;SDS011;17777;48.770;8.944;2023-04-19T08:02:43;9.45;;;7.50;;
31128;SDS011;17777;48.770;8.944;2023-04-19T08:05:16;7.93;;;6.70;;
31128;SDS011;17777;48.770;8.944;2023-04-19T08:07:42;9.98;;;7.60;;
31128;SDS011;17777;48.770;8.944;2023-04-19T08:10:08;9.38;;;6.80;;
31128;SDS011;17777;48.770;8.944;2023-04-19T08:12:35;8.13;;;6.22;;
31128;SDS011;17777;48.770;8.944;2023-04-19T08:15:02;9.68;;;7.28;;
31128;SDS011;17777;48.770;8.944;2023-04-19T08:17:31;7.13;;;6.05;;
31128;SDS011;17777;48.770;8.944;2023-04-19T08:19:57;8.85;;;7.20;;
31128;SDS011;17777;48.770;8.944;2023-04-19T08:22:23;8.10;;;5.95;;
31128;SDS011;17777;48.770;8.944;2023-04-19T08:24:49;8.85;;;7.05;;
31128;SDS011;17777;48.770;8.944;2023-04-19T08:27:16;8.02;;;6.68;;
31128;SDS011;17777;48.770;8.944;2023-04-19T08:29:42;7.40;;;6.45;;
31128;SDS011;17777;48.770;8.944;2023-04-19T08:32:09;7.88;;;6.55;;
31128;SDS011;17777;48.770;8.944;2023-04-19T08:34:36;7.35;;;6.07;;
31128;SDS011;17777;48.770;8.944;2023-04-19T08:37:04;8.48;;;5.57;;
31128;SDS011;17777;48.770;8.944;2023-04-19T08:39:31;7.45;;;6.03;;
31128;SDS011;17777;48.770;8.944;2023-04-19T08:42:07;8.32;;;6.25;;
31128;SDS011;17777;48.770;8.944;2023-04-19T08:44:34;7.82;;;6.32;;
31128;SDS011;17777;48.770;8.944;2023-04-19T08:47:03;6.32;;;5.70;;
31128;SDS011;17777;48.770;8.944;2023-04-19T08:49:30;7.38;;;5.65;;
31128;SDS011;17777;48.770;8.944;2023-04-19T08:52:00;6.85;;;5.82;;
31128;SDS011;17777;48.770;8.944;2023-04-19T08:54:30;6.45;;;5.55;;
31128;SDS011;17777;48.770;8.944;2023-04-19T08:56:59;6.05;;;5.13;;
31128;SDS011;17777;48.770;8.944;2023-04-19T08:59:27;7.85;;;5.82;;
31128;SDS011;17777;48.770;8.944;2023-04-19T09:01:55;5.75;;;4.78;;
31128;SDS011;17777;48.770;8.944;2023-04-19T09:04:29;7.05;;;5.82;;
31128;SDS011;17777;48.770;8.944;2023-04-19T09:06:55;8.98;;;5.97;;
31128;SDS011;17777;48.770;8.944;2023-04-19T09:09:25;6.63;;;5.43;;
31128;SDS011;17777;48.770;8.944;2023-04-19T09:11:53;8.10;;;5.80;;
31128;SDS011;17777;48.770;8.944;2023-04-19T09:14:20;7.25;;;6.07;;
31128;SDS011;17777;48.770;8.944;2023-04-19T09:16:47;5.88;;;5.15;;
31128;SDS011;17777;48.770;8.944;2023-04-19T09:19:13;6.53;;;5.30;;
31128;SDS011;17777;48.770;8.944;2023-04-19T09:21:41;6.40;;;5.65;;
31128;SDS011;17777;48.770;8.944;2023-04-19T09:24:07;7.65;;;5.88;;
31128;SDS011;17777;48.770;8.944;2023-04-19T09:26:34;8.50;;;5.47;;
31128;SDS011;17777;48.770;8.944;2023-04-19T09:29:02;9.57;;;6.05;;
31128;SDS011;17777;48.770;8.944;2023-04-19T09:31:35;7.32;;;5.95;;
31128;SDS011;17777;48.770;8.944;2023-04-19T09:34:12;7.70;;;6.10;;
31128;SDS011;17777;48.770;8.944;2023-04-19T09:36:42;8.70;;;5.57;;
31128;SDS011;17777;48.770;8.944;2023-04-19T09:39:09;6.40;;;5.65;;
31128;SDS011;17777;48.770;8.944;2023-04-19T09:41:49;7.53;;;6.45;;
31128;SDS011;17777;48.770;8.944;2023-04-19T09:44:18;7.80;;;5.82;;
31128;SDS011;17777;48.770;8.944;2023-04-19T09:46:45;7.35;;;4.95;;
31128;SDS011;17777;48.770;8.944;2023-04-19T09:51:42;7.28;;;5.93;;
31128;SDS011;17777;48.770;8.944;2023-04-19T09:54:09;6.63;;;5.57;;
31128;SDS011;17777;48.770;8.944;2023-04-19T09:56:37;7.00;;;5.43;;
31128;SDS011;17777;48.770;8.944;2023-04-19T09:59:03;6.10;;;5.50;;
31128;SDS011;17777;48.770;8.944;2023-04-19T10:01:37;6.10;;;5.00;;
31128;SDS011;17777;48.770;8.944;2023-04-19T10:04:08;5.70;;;4.90;;
31128;SDS011;17777;48.770;8.944;2023-04-19T10:06:37;7.78;;;5.15;;
31128;SDS011;17777;48.770;8.944;2023-04-19T10:09:04;6.28;;;5.13;;
31128;SDS011;17777;48.770;8.944;2023-04-19T10:11:36;6.43;;;5.45;;
31128;SDS011;17777;48.770;8.944;2023-04-19T10:14:06;7.47;;;5.55;;
31128;SDS011;17777;48.770;8.944;2023-04-19T10:16:34;5.68;;;4.47;;
31128;SDS011;17777;48.770;8.944;2023-04-19T10:19:03;6.85;;;4.97;;
31128;SDS011;17777;48.770;8.944;2023-04-19T10:21:33;6.65;;;5.00;;
31128;SDS011;17777;48.770;8.944;2023-04-19T10:24:00;7.40;;;5.45;;
31128;SDS011;17777;48.770;8.944;2023-04-19T10:26:26;6.60;;;5.07;;
31128;SDS011;17777;48.770;8.944;2023-04-19T10:28:53;5.55;;;4.85;;
31128;SDS011;17777;48.770;8.944;2023-04-19T10:31:23;5.80;;;5.20;;
31128;SDS011;17777;48.770;8.944;2023-04-19T10:33:50;6.35;;;5.07;;
31128;SDS011;17777;48.770;8.944;2023-04-19T10:36:17;6.20;;;5.05;;
31128;SDS011;17777;48.770;8.944;2023-04-19T10:38:47;7.50;;;5.75;;
31128;SDS011;17777;48.770;8.944;2023-04-19T10:41:19;6.83;;;4.67;;
31128;SDS011;17777;48.770;8.944;2023-04-19T10:43:46;5.88;;;5.15;;
31128;SDS011;17777;48.770;8.944;2023-04-19T10:48:50;6.32;;;5.10;;
31128;SDS011;17777;48.770;8.944;2023-04-19T10:51:18;5.85;;;5.13;;
31128;SDS011;17777;48.770;8.944;2023-04-19T11:04:17;5.80;;;4.97;;
31128;SDS011;17777;48.770;8.944;2023-04-19T11:09:21;6.05;;;4.78;;
31128;SDS011;17777;48.770;8.944;2023-04-19T11:12:04;7.13;;;5.03;;
31128;SDS011;17777;48.770;8.944;2023-04-19T11:17:15;6.78;;;4.55;;
31128;SDS011;17777;48.770;8.944;2023-04-19T11:22:31;5.10;;;4.32;;
31128;SDS011;17777;48.770;8.944;2023-04-19T11:25:07;6.60;;;5.07;;
31128;SDS011;17777;48.770;8.944;2023-04-19T11:27:41;6.13;;;5.10;;
31128;SDS011;17777;48.770;8.944;2023-04-19T11:30:10;7.00;;;5.47;;
31128;SDS011;17777;48.770;8.944;2023-04-19T11:32:44;6.88;;;5.57;;
31128;SDS011;17777;48.770;8.944;2023-04-19T11:35:18;6.40;;;5.22;;
31128;SDS011;17777;48.770;8.944;2023-04-19T11:37:49;5.93;;;5.25;;
31128;SDS011;17777;48.770;8.944;2023-04-19T11:40:16;6.60;;;5.68;;
31128;SDS011;17777;48.770;8.944;2023-04-19T11:42:43;5.35;;;4.85;;
31128;SDS011;17777;48.770;8.944;2023-04-19T11:45:10;6.22;;;5.07;;
31128;SDS011;17777;48.770;8.944;2023-04-19T11:47:47;6.00;;;5.25;;
31128;SDS011;17777;48.770;8.944;2023-04-19T11:55:49;7.47;;;5.28;;
31128;SDS011;17777;48.770;8.944;2023-04-19T12:01:10;6.60;;;5.63;;
31128;SDS011;17777;48.770;8.944;2023-04-19T12:08:47;6.80;;;5.68;;
31128;SDS011;17777;48.770;8.944;2023-04-19T12:11:15;8.98;;;6.55;;
31128;SDS011;17777;48.770;8.944;2023-04-19T12:13:43;6.97;;;6.00;;
31128;SDS011;17777;48.770;8.944;2023-04-19T12:16:09;7.65;;;5.88;;
31128;SDS011;17777;48.770;8.944;2023-04-19T12:18:43;6.70;;;5.65;;
31128;SDS011;17777;48.770;8.944;2023-04-19T12:21:25;7.65;;;5.93;;
31128;SDS011;17777;48.770;8.944;2023-04-19T12:23:58;8.35;;;6.15;;
31128;SDS011;17777;48.770;8.944;2023-04-19T12:26:26;8.50;;;6.50;;
31128;SDS011;17777;48.770;8.944;2023-04-19T12:28:56;8.23;;;5.97;;
31128;SDS011;17777;48.770;8.944;2023-04-19T12:31:24;8.02;;;6.68;;
31128;SDS011;17777;48.770;8.944;2023-04-19T12:33:50;7.80;;;6.05;;
31128;SDS011;17777;48.770;8.944;2023-04-19T12:36:15;7.20;;;6.15;;
31128;SDS011;17777;48.770;8.944;2023-04-19T12:38:41;9.07;;;6.90;;
31128;SDS011;17777;48.770;8.944;2023-04-19T12:41:07;8.48;;;6.60;;
31128;SDS011;17777;48.770;8.944;2023-04-19T12:43:33;8.40;;;6.63;;
31128;SDS011;17777;48.770;8.944;2023-04-19T12:45:59;7.95;;;6.57;;
31128;SDS011;17777;48.770;8.944;2023-04-19T12:48:25;7.68;;;6.60;;
31128;SDS011;17777;48.770;8.944;2023-04-19T12:50:52;6.60;;;5.82;;
31128;SDS011;17777;48.770;8.944;2023-04-19T12:53:18;7.18;;;6.40;;
31128;SDS011;17777;48.770;8.944;2023-04-19T12:55:45;8.00;;;6.35;;
31128;SDS011;17777;48.770;8.944;2023-04-19T12:58:13;8.70;;;6.72;;
31128;SDS011;17777;48.770;8.944;2023-04-19T13:00:43;8.73;;;7.47;;
31128;SDS011;17777;48.770;8.944;2023-04-19T13:03:09;10.40;;;7.55;;
31128;SDS011;17777;48.770;8.944;2023-04-19T13:05:38;10.25;;;7.57;;
31128;SDS011;17777;48.770;8.944;2023-04-19T13:08:04;7.95;;;6.68;;
31128;SDS011;17777;48.770;8.944;2023-04-19T13:10:30;9.52;;;6.97;;
31128;SDS011;17777;48.770;8.944;2023-04-19T13:12:56;8.43;;;7.13;;
31128;SDS011;17777;48.770;8.944;2023-04-19T13:15:23;9.32;;;6.68;;
31128;SDS011;17777;48.770;8.944;2023-04-19T13:17:49;6.95;;;6.13;;
31128;SDS011;17777;48.770;8.944;2023-04-19T13:20:16;7.63;;;5.85;;
31128;SDS011;17777;48.770;8.944;2023-04-19T13:22:44;11.32;;;6.72;;
31128;SDS011;17777;48.770;8.944;2023-04-19T13:25:10;11.05;;;7.30;;
31128;SDS011;17777;48.770;8.944;2023-04-19T13:27:35;9.80;;;7.30;;
31128;SDS011;17777;48.770;8.944;2023-04-19T13:30:01;8.10;;;6.38;;
31128;SDS011;17777;48.770;8.944;2023-04-19T13:32:27;8.50;;;6.75;;
31128;SDS011;17777;48.770;8.944;2023-04-19T13:34:53;9.82;;;6.65;;
31128;SDS011;17777;48.770;8.944;2023-04-19T13:37:19;8.13;;;6.82;;
31128;SDS011;17777;48.770;8.944;2023-04-19T13:39:45;7.82;;;6.40;;
31128;SDS011;17777;48.770;8.944;2023-04-19T13:42:11;6.82;;;5.60;;
31128;SDS011;17777;48.770;8.944;2023-04-19T13:44:38;9.38;;;6.65;;
31128;SDS011;17777;48.770;8.944;2023-04-19T13:47:04;8.38;;;6.50;;
31128;SDS011;17777;48.770;8.944;2023-04-19T13:49:29;9.07;;;6.38;;
31128;SDS011;17777;48.770;8.944;2023-04-19T13:51:55;7.85;;;5.68;;
31128;SDS011;17777;48.770;8.944;2023-04-19T13:54:21;8.68;;;6.30;;
31128;SDS011;17777;48.770;8.944;2023-04-19T13:56:47;8.38;;;6.15;;
31128;SDS011;17777;48.770;8.944;2023-04-19T13:59:13;8.23;;;5.88;;
31128;SDS011;17777;48.770;8.944;2023-04-19T14:01:39;6.95;;;6.00;;
31128;SDS011;17777;48.770;8.944;2023-04-19T14:04:05;6.78;;;5.88;;
31128;SDS011;17777;48.770;8.944;2023-04-19T14:06:31;7.38;;;5.70;;
31128;SDS011;17777;48.770;8.944;2023-04-19T14:08:57;7.47;;;5.90;;
31128;SDS011;17777;48.770;8.944;2023-04-19T14:11:26;8.10;;;6.03;;
31128;SDS011;17777;48.770;8.944;2023-04-19T14:13:52;7.20;;;5.30;;
31128;SDS011;17777;48.770;8.944;2023-04-19T14:16:19;7.68;;;6.10;;
31128;SDS011;17777;48.770;8.944;2023-04-19T14:18:45;7.22;;;5.70;;
31128;SDS011;17777;48.770;8.944;2023-04-19T14:21:10;7.18;;;6.00;;
31128;SDS011;17777;48.770;8.944;2023-04-19T14:23:36;8.25;;;5.72;;
31128;SDS011;17777;48.770;8.944;2023-04-19T14:26:02;8.95;;;6.22;;
31128;SDS011;17777;48.770;8.944;2023-04-19T14:28:28;7.40;;;5.82;;
31128;SDS011;17777;48.770;8.944;2023-04-19T14:30:53;7.45;;;5.90;;
31128;SDS011;17777;48.770;8.944;2023-04-19T14:33:19;7.72;;;5.72;;
31128;SDS011;17777;48.770;8.944;2023-04-19T14:35:45;8.13;;;5.55;;
31128;SDS011;17777;48.770;8.944;2023-04-19T14:38:11;9.18;;;5.78;;
31128;SDS011;17777;48.770;8.944;2023-04-19T14:40:37;9.15;;;6.32;;
31128;SDS011;17777;48.770;8.944;2023-04-19T14:43:03;8.00;;;6.07;;
31128;SDS011;17777;48.770;8.944;2023-04-19T14:45:28;7.82;;;5.80;;
31128;SDS011;17777;48.770;8.944;2023-04-19T14:47:54;6.85;;;5.63;;
31128;SDS011;17777;48.770;8.944;2023-04-19T14:50:20;7.10;;;5.85;;
31128;SDS011;17777;48.770;8.944;2023-04-19T14:52:46;8.70;;;6.15;;
31128;SDS011;17777;48.770;8.944;2023-04-19T14:55:12;9.50;;;6.70;;
31128;SDS011;17777;48.770;8.944;2023-04-19T14:57:37;7.95;;;5.95;;
31128;SDS011;17777;48.770;8.944;2023-04-19T15:00:03;7.63;;;6.07;;
31128;SDS011;17777;48.770;8.944;2023-04-19T15:02:30;8.30;;;5.82;;
31128;SDS011;17777;48.770;8.944;2023-04-19T15:04:56;9.73;;;6.82;;
31128;SDS011;17777;48.770;8.944;2023-04-19T15:07:21;7.15;;;5.43;;
31128;SDS011;17777;48.770;8.944;2023-04-19T15:09:47;8.48;;;5.70;;
31128;SDS011;17777;48.770;8.944;2023-04-19T15:12:13;6.60;;;5.43;;
31128;SDS011;17777;48.770;8.944;2023-04-19T15:14:39;7.07;;;5.97;;
31128;SDS011;17777;48.770;8.944;2023-04-19T15:17:05;7.38;;;6.10;;
31128;SDS011;17777;48.770;8.944;2023-04-19T15:19:31;9.57;;;6.03;;
31128;SDS011;17777;48.770;8.944;2023-04-19T15:21:57;7.47;;;6.28;;
31128;SDS011;17777;48.770;8.944;2023-04-19T15:24:22;8.18;;;6.22;;
31128;SDS011;17777;48.770;8.944;2023-04-19T15:26:48;10.52;;;6.57;;
31128;SDS011;17777;48.770;8.944;2023-04-19T15:29:14;8.93;;;5.90;;